createdAt,value
2017-07-27T00:01:32.713Z,13.80
2017-07-27T00:04:00.292Z,13.50
2017-07-27T00:06:28.671Z,13.03
2017-07-27T00:08:56.273Z,13.30
2017-07-27T00:11:23.867Z,14.50
2017-07-27T00:13:51.533Z,13.67
2017-07-27T00:16:19.121Z,13.17
2017-07-27T00:18:47.466Z,12.20
2017-07-27T00:21:15.122Z,12.20
2017-07-27T00:23:42.697Z,12.47
2017-07-27T00:26:10.287Z,12.70
2017-07-27T00:28:37.919Z,12.30
2017-07-27T00:31:05.513Z,14.10
2017-07-27T00:33:33.864Z,13.50
2017-07-27T00:36:01.500Z,12.10
2017-07-27T00:38:29.103Z,12.80
2017-07-27T00:40:56.701Z,12.67
2017-07-27T00:43:24.372Z,12.33
2017-07-27T00:45:51.969Z,12.30
2017-07-27T00:48:19.566Z,13.97
2017-07-27T00:50:47.307Z,12.50
2017-07-27T00:53:14.900Z,11.43
2017-07-27T00:55:42.493Z,13.40
2017-07-27T00:58:10.139Z,12.93
2017-07-27T01:00:37.715Z,12.70
2017-07-27T01:03:05.304Z,12.93
2017-07-27T01:05:33.699Z,13.83
2017-07-27T01:08:01.284Z,13.57
2017-07-27T01:10:28.873Z,13.50
2017-07-27T01:12:56.493Z,12.50
2017-07-27T01:15:24.880Z,13.60
2017-07-27T01:17:52.523Z,12.83
2017-07-27T01:20:20.166Z,14.00
2017-07-27T01:22:47.751Z,13.87
2017-07-27T01:25:15.360Z,13.87
2017-07-27T01:27:42.978Z,14.30
2017-07-27T01:30:11.327Z,14.30
2017-07-27T01:32:38.908Z,14.70
2017-07-27T01:35:06.574Z,17.93
2017-07-27T01:37:34.165Z,14.90
2017-07-27T01:40:01.753Z,15.60
2017-07-27T01:42:29.406Z,14.80
2017-07-27T01:44:56.979Z,15.20
2017-07-27T01:47:24.551Z,16.20
2017-07-27T01:49:52.956Z,15.40
2017-07-27T01:52:20.548Z,16.00
2017-07-27T01:54:48.245Z,14.10
2017-07-27T01:57:15.874Z,16.30
2017-07-27T01:59:43.473Z,15.13
2017-07-27T02:02:11.823Z,15.17
2017-07-27T02:04:40.215Z,13.80
2017-07-27T02:07:07.804Z,14.30
2017-07-27T02:09:35.781Z,15.27
2017-07-27T02:12:03.447Z,14.50
2017-07-27T02:14:31.022Z,14.83
2017-07-27T02:16:58.608Z,14.03
2017-07-27T02:19:26.248Z,13.77
2017-07-27T02:21:53.926Z,14.00
2017-07-27T02:24:22.290Z,13.23
2017-07-27T02:26:49.956Z,13.80
2017-07-27T02:29:17.531Z,12.43
2017-07-27T02:31:45.122Z,12.10
2017-07-27T02:34:12.774Z,12.90
2017-07-27T02:36:40.356Z,13.30
2017-07-27T02:39:07.931Z,13.60
2017-07-27T02:41:35.546Z,12.03
2017-07-27T02:44:03.127Z,12.10
2017-07-27T02:46:30.721Z,11.77
2017-07-27T02:48:58.356Z,11.80
2017-07-27T02:51:25.940Z,9.97
2017-07-27T02:53:53.533Z,10.70
2017-07-27T02:56:21.163Z,10.63
2017-07-27T02:58:49.620Z,10.70
2017-07-27T03:01:17.977Z,9.93
2017-07-27T03:03:46.366Z,10.20
2017-07-27T03:06:13.942Z,10.10
2017-07-27T03:08:41.524Z,9.83
2017-07-27T03:11:09.157Z,10.73
2017-07-27T03:13:36.744Z,10.90
2017-07-27T03:16:05.096Z,10.57
2017-07-27T03:18:33.490Z,11.20
2017-07-27T03:21:01.062Z,11.23
2017-07-27T03:23:28.649Z,11.10
2017-07-27T03:25:57.127Z,11.20
2017-07-27T03:28:24.721Z,10.90
2017-07-27T03:30:52.304Z,10.20
2017-07-27T03:33:20.700Z,11.43
2017-07-27T03:35:48.298Z,12.10
2017-07-27T03:38:15.970Z,11.33
2017-07-27T03:40:43.620Z,10.33
2017-07-27T03:43:11.191Z,12.10
2017-07-27T03:45:38.786Z,10.07
2017-07-27T03:48:07.179Z,10.53
2017-07-27T03:50:34.767Z,11.60
2017-07-27T03:53:02.347Z,11.30
2017-07-27T03:55:30.746Z,10.60
2017-07-27T03:57:58.341Z,11.33
2017-07-27T04:00:26.696Z,11.77
2017-07-27T04:02:54.319Z,11.00
2017-07-27T04:05:21.926Z,12.03
2017-07-27T04:07:49.523Z,12.97
2017-07-27T04:10:17.154Z,10.63
2017-07-27T04:12:44.740Z,10.40
2017-07-27T04:15:12.324Z,10.00
2017-07-27T04:17:40.734Z,10.47
2017-07-27T04:20:08.310Z,10.70
2017-07-27T04:22:35.913Z,10.10
2017-07-27T04:25:03.560Z,12.60
2017-07-27T04:27:31.180Z,11.77
2017-07-27T04:29:58.769Z,10.80
2017-07-27T04:32:26.398Z,12.30
2017-07-27T04:34:53.991Z,12.40
2017-07-27T04:37:21.580Z,13.73
2017-07-27T04:39:49.216Z,13.20
2017-07-27T04:42:16.814Z,13.73
2017-07-27T04:44:45.176Z,13.90
2017-07-27T04:47:12.813Z,14.03
2017-07-27T04:49:40.403Z,15.37
2017-07-27T04:52:07.989Z,15.40
2017-07-27T04:54:35.610Z,14.87
2017-07-27T04:57:15.224Z,15.50
2017-07-27T04:59:42.864Z,15.17
2017-07-27T05:02:10.438Z,16.50
2017-07-27T05:04:38.023Z,17.03
2017-07-27T05:07:05.655Z,17.57
2017-07-27T05:09:33.241Z,18.27
2017-07-27T05:12:00.823Z,18.33
2017-07-27T05:14:28.473Z,16.80
2017-07-27T05:16:56.060Z,18.67
2017-07-27T05:19:23.636Z,18.73
2017-07-27T05:21:52.035Z,17.20
2017-07-27T05:24:19.613Z,17.00
2017-07-27T05:26:47.187Z,18.07
2017-07-27T05:29:15.602Z,17.73
2017-07-27T05:31:43.190Z,19.00
2017-07-27T05:34:10.780Z,19.53
2017-07-27T05:36:38.428Z,16.30
2017-07-27T05:39:06.021Z,16.17
2017-07-27T05:41:33.618Z,15.50
2017-07-27T05:44:01.260Z,17.50
2017-07-27T05:46:28.858Z,18.13
2017-07-27T05:48:56.443Z,17.40
2017-07-27T05:51:24.068Z,17.53
2017-07-27T05:53:52.490Z,17.90
2017-07-27T05:56:20.062Z,17.47
2017-07-27T05:58:48.452Z,18.50
2017-07-27T06:01:16.053Z,17.10
2017-07-27T06:03:43.644Z,19.30
2017-07-27T06:06:11.361Z,18.60
2017-07-27T06:08:38.967Z,19.30
2017-07-27T06:11:06.555Z,18.37
2017-07-27T06:13:34.220Z,19.17
2017-07-27T06:16:01.813Z,18.60
2017-07-27T06:18:30.169Z,20.10
2017-07-27T06:20:58.578Z,18.00
2017-07-27T06:23:26.173Z,19.30
2017-07-27T06:25:53.746Z,18.13
2017-07-27T06:28:21.379Z,18.10
2017-07-27T06:30:49.749Z,17.50
2017-07-27T06:33:17.336Z,18.30
2017-07-27T06:35:44.962Z,19.10
2017-07-27T06:38:12.562Z,20.83
2017-07-27T06:40:40.957Z,20.33
2017-07-27T06:43:08.588Z,22.27
2017-07-27T06:45:36.163Z,18.37
2017-07-27T06:48:03.762Z,22.20
2017-07-27T06:50:32.146Z,21.67
2017-07-27T06:52:59.732Z,19.83
2017-07-27T06:55:27.315Z,21.30
2017-07-27T06:57:55.703Z,24.30
2017-07-27T07:00:23.358Z,22.50
2017-07-27T07:02:50.934Z,23.80
2017-07-27T07:05:18.564Z,21.57
2017-07-27T07:07:46.208Z,22.47
2017-07-27T07:10:13.813Z,23.30
2017-07-27T07:12:41.440Z,25.27
2017-07-27T07:15:09.041Z,23.40
2017-07-27T07:17:36.614Z,25.00
2017-07-27T07:20:05.023Z,24.87
2017-07-27T07:22:32.594Z,23.07
2017-07-27T07:25:00.198Z,23.77
2017-07-27T07:27:27.823Z,21.00
2017-07-27T07:29:55.403Z,23.07
2017-07-27T07:32:23.002Z,23.37
2017-07-27T07:34:51.422Z,24.80
2017-07-27T07:37:19.008Z,23.83
2017-07-27T07:39:47.384Z,23.57
2017-07-27T07:42:15.035Z,24.47
2017-07-27T07:44:42.627Z,22.07
2017-07-27T07:47:10.198Z,22.70
2017-07-27T07:49:38.600Z,21.17
2017-07-27T07:52:06.194Z,23.07
2017-07-27T07:54:33.794Z,24.00
2017-07-27T07:57:01.425Z,23.50
2017-07-27T07:59:29.023Z,21.97
2017-07-27T08:01:56.606Z,22.47
2017-07-27T08:04:24.224Z,21.37
2017-07-27T08:06:51.806Z,21.60
2017-07-27T08:09:45.195Z,20.40
2017-07-27T08:12:12.793Z,23.57
2017-07-27T08:14:40.399Z,22.13
2017-07-27T08:17:08.024Z,20.83
2017-07-27T08:19:35.613Z,21.77
2017-07-27T08:22:03.978Z,21.33
2017-07-27T08:24:32.408Z,20.57
2017-07-27T08:26:59.982Z,22.30
2017-07-27T08:29:28.332Z,21.70
2017-07-27T08:31:55.960Z,20.77
2017-07-27T08:32:48.077Z,3.63
2017-07-27T08:34:23.561Z,19.43
2017-07-27T08:35:15.523Z,2.93
2017-07-27T08:36:51.134Z,20.37
2017-07-27T08:37:42.985Z,3.20
2017-07-27T08:39:18.751Z,16.87
2017-07-27T08:40:10.412Z,3.27
2017-07-27T08:41:46.340Z,18.70
2017-07-27T08:42:37.856Z,3.10
2017-07-27T08:44:13.925Z,17.77
2017-07-27T08:45:05.299Z,2.63
2017-07-27T08:46:41.879Z,16.97
2017-07-27T08:47:32.761Z,2.77
2017-07-27T08:49:09.479Z,16.70
2017-07-27T08:50:00.199Z,3.20
2017-07-27T08:51:37.110Z,16.90
2017-07-27T08:52:27.633Z,2.70
2017-07-27T08:54:04.752Z,18.20
2017-07-27T08:54:55.103Z,2.60
2017-07-27T08:56:32.326Z,18.67
2017-07-27T08:57:22.528Z,2.80
2017-07-27T08:58:59.898Z,18.90
2017-07-27T08:59:49.970Z,2.47
2017-07-27T09:01:27.535Z,18.60
2017-07-27T09:02:17.424Z,2.70
2017-07-27T09:03:55.888Z,19.50
2017-07-27T09:04:44.969Z,2.80
2017-07-27T09:06:23.476Z,20.07
2017-07-27T09:07:12.437Z,2.80
2017-07-27T09:08:51.112Z,17.93
2017-07-27T09:09:39.895Z,2.90
2017-07-27T09:11:18.696Z,16.50
2017-07-27T09:12:08.230Z,2.67
2017-07-27T09:13:46.271Z,18.77
2017-07-27T09:14:36.581Z,2.43
2017-07-27T09:16:13.911Z,18.07
2017-07-27T09:17:04.005Z,2.30
2017-07-27T09:18:42.269Z,19.00
2017-07-27T09:19:31.476Z,2.53
2017-07-27T09:21:10.607Z,17.53
2017-07-27T09:21:59.046Z,2.60
2017-07-27T09:23:38.241Z,18.17
2017-07-27T09:24:26.476Z,2.87
2017-07-27T09:26:05.832Z,14.80
2017-07-27T09:26:53.920Z,2.60
2017-07-27T09:28:33.415Z,19.27
2017-07-27T09:29:21.382Z,2.30
2017-07-27T09:31:01.056Z,18.50
2017-07-27T09:31:49.469Z,2.77
2017-07-27T09:33:28.662Z,18.17
2017-07-27T09:34:16.942Z,3.00
2017-07-27T09:35:56.235Z,15.30
2017-07-27T09:36:44.368Z,2.60
2017-07-27T09:38:23.867Z,15.37
2017-07-27T09:39:11.813Z,3.07
2017-07-27T09:40:51.452Z,13.80
2017-07-27T09:41:39.329Z,2.60
2017-07-27T09:43:19.123Z,14.23
2017-07-27T09:44:06.836Z,2.70
2017-07-27T09:45:47.519Z,15.03
2017-07-27T09:46:34.316Z,3.00
2017-07-27T09:48:15.105Z,14.20
2017-07-27T09:49:05.969Z,3.10
2017-07-27T09:50:42.701Z,14.07
2017-07-27T09:51:34.789Z,3.20
2017-07-27T09:53:10.340Z,13.40
2017-07-27T09:54:03.003Z,3.30
2017-07-27T09:55:38.707Z,13.43
2017-07-27T09:56:31.024Z,3.00
2017-07-27T09:58:06.291Z,12.47
2017-07-27T09:58:58.445Z,2.90
2017-07-27T10:00:33.914Z,12.10
2017-07-27T10:01:26.102Z,3.00
2017-07-27T10:03:01.500Z,11.70
2017-07-27T10:03:54.379Z,3.50
2017-07-27T10:05:29.083Z,10.10
2017-07-27T10:06:21.819Z,3.30
2017-07-27T10:07:57.475Z,10.80
2017-07-27T10:08:49.240Z,3.63
2017-07-27T10:10:25.056Z,11.47
2017-07-27T10:11:17.515Z,3.57
2017-07-27T10:12:52.640Z,9.13
2017-07-27T10:13:44.940Z,3.57
2017-07-27T10:15:21.038Z,8.80
2017-07-27T10:16:12.381Z,3.30
2017-07-27T10:17:48.629Z,8.73
2017-07-27T10:18:39.822Z,3.40
2017-07-27T10:20:16.194Z,7.40
2017-07-27T10:21:07.260Z,3.30
2017-07-27T10:22:44.661Z,7.93
2017-07-27T10:23:37.355Z,3.47
2017-07-27T10:25:13.002Z,9.10
2017-07-27T10:26:04.800Z,4.43
2017-07-27T10:27:41.348Z,7.13
2017-07-27T10:28:33.004Z,3.80
2017-07-27T10:30:08.991Z,8.93
2017-07-27T10:31:00.442Z,4.23
2017-07-27T10:32:36.569Z,7.80
2017-07-27T10:33:27.873Z,3.80
2017-07-27T10:35:04.167Z,7.73
2017-07-27T10:35:55.316Z,3.40
2017-07-27T10:37:31.778Z,7.00
2017-07-27T10:38:22.756Z,3.97
2017-07-27T10:39:59.352Z,6.40
2017-07-27T10:40:50.205Z,4.23
2017-07-27T10:42:26.928Z,5.97
2017-07-27T10:43:17.633Z,3.70
2017-07-27T10:44:54.548Z,5.27
2017-07-27T10:45:45.085Z,3.70
2017-07-27T10:47:22.152Z,4.23
2017-07-27T10:48:13.322Z,3.77
2017-07-27T10:49:49.718Z,4.40
2017-07-27T10:50:40.765Z,3.60
2017-07-27T10:52:17.337Z,4.77
2017-07-27T10:53:08.961Z,3.60
2017-07-27T10:54:44.926Z,4.73
2017-07-27T10:55:36.441Z,4.00
2017-07-27T10:57:12.525Z,4.40
2017-07-27T10:58:03.852Z,3.70
2017-07-27T10:59:40.156Z,4.00
2017-07-27T11:00:32.059Z,4.50
2017-07-27T11:02:08.504Z,4.93
2017-07-27T11:02:59.513Z,3.90
2017-07-27T11:04:36.093Z,3.67
2017-07-27T11:05:26.960Z,3.33
2017-07-27T11:07:03.738Z,4.87
2017-07-27T11:07:54.430Z,4.00
2017-07-27T11:09:31.298Z,4.10
2017-07-27T11:10:21.851Z,4.40
2017-07-27T11:11:58.857Z,4.40
2017-07-27T11:12:49.307Z,4.23
2017-07-27T11:14:27.263Z,3.70
2017-07-27T11:15:16.730Z,3.70
2017-07-27T11:16:54.844Z,4.80
2017-07-27T11:17:44.156Z,3.63
2017-07-27T11:19:22.425Z,4.03
2017-07-27T11:20:11.776Z,3.53
2017-07-27T11:21:50.047Z,4.47
2017-07-27T11:22:39.232Z,4.27
2017-07-27T11:24:17.641Z,4.67
2017-07-27T11:25:06.674Z,3.93
2017-07-27T11:26:45.220Z,3.97
2017-07-27T11:27:34.111Z,3.20
2017-07-27T11:29:12.840Z,4.10
2017-07-27T11:30:02.309Z,3.37
2017-07-27T11:31:40.427Z,3.77
2017-07-27T11:32:29.749Z,4.03
2017-07-27T11:34:08.761Z,4.13
2017-07-27T11:34:57.172Z,3.60
2017-07-27T11:36:36.366Z,4.17
2017-07-27T11:37:24.607Z,3.63
2017-07-27T11:39:03.957Z,4.00
2017-07-27T11:39:52.028Z,3.73
2017-07-27T11:41:31.518Z,3.80
2017-07-27T11:42:19.456Z,4.20
2017-07-27T11:43:59.141Z,3.67
2017-07-27T11:44:47.384Z,3.80
2017-07-27T11:46:26.714Z,3.87
2017-07-27T11:47:14.828Z,3.70
2017-07-27T11:48:55.059Z,4.13
2017-07-27T11:49:42.244Z,3.30
2017-07-27T11:51:22.688Z,3.73
2017-07-27T11:52:12.116Z,3.70
2017-07-27T11:53:50.270Z,3.37
2017-07-27T11:54:39.576Z,3.63
2017-07-27T11:56:18.603Z,3.37
2017-07-27T11:57:07.014Z,2.80
2017-07-27T11:58:46.223Z,3.30
2017-07-27T11:59:34.458Z,3.90
2017-07-27T12:01:13.795Z,3.67
2017-07-27T12:02:02.649Z,2.70
2017-07-27T12:03:41.394Z,3.80
2017-07-27T12:04:30.630Z,3.27
2017-07-27T12:06:09.021Z,3.33
2017-07-27T12:06:58.178Z,3.40
2017-07-27T12:08:36.611Z,3.70
2017-07-27T12:09:25.603Z,4.20
2017-07-27T12:11:04.943Z,3.03
2017-07-27T12:11:53.036Z,3.50
2017-07-27T12:13:32.564Z,3.37
2017-07-27T12:14:20.478Z,3.70
2017-07-27T12:16:00.140Z,4.20
2017-07-27T12:16:47.908Z,3.83
2017-07-27T12:18:27.717Z,3.40
2017-07-27T12:19:15.339Z,3.10
2017-07-27T12:20:55.350Z,5.00
2017-07-27T12:21:42.779Z,4.20
2017-07-27T12:23:23.696Z,4.13
2017-07-27T12:24:10.224Z,3.13
2017-07-27T12:25:51.281Z,3.73
2017-07-27T12:26:38.429Z,3.07
2017-07-27T12:28:18.918Z,3.40
2017-07-27T12:29:05.858Z,3.20
2017-07-27T12:30:46.492Z,3.77
2017-07-27T12:31:34.055Z,3.00
2017-07-27T12:33:14.112Z,4.00
2017-07-27T12:34:01.476Z,3.20
2017-07-27T12:35:41.724Z,3.90
2017-07-27T12:36:28.911Z,3.43
2017-07-27T12:38:09.313Z,3.67
2017-07-27T12:38:57.064Z,3.17
2017-07-27T12:40:36.896Z,3.27
2017-07-27T12:43:04.528Z,3.57
2017-07-27T12:43:58.903Z,3.20
2017-07-27T12:45:32.109Z,3.50
2017-07-27T12:46:27.048Z,3.50
2017-07-27T12:48:00.474Z,3.77
2017-07-27T12:48:54.491Z,3.13
2017-07-27T12:50:28.888Z,3.70
2017-07-27T12:51:21.922Z,3.70
2017-07-27T12:52:56.455Z,3.40
2017-07-27T12:53:49.364Z,3.27
2017-07-27T12:55:24.096Z,2.90
2017-07-27T12:56:16.804Z,3.00
2017-07-27T12:57:51.729Z,3.67
2017-07-27T12:58:44.288Z,3.17
2017-07-27T13:00:19.334Z,2.93
2017-07-27T13:01:11.722Z,2.57
2017-07-27T13:02:46.966Z,2.90
2017-07-27T13:03:39.211Z,3.20
2017-07-27T13:05:15.365Z,4.37
2017-07-27T13:06:06.676Z,3.57
2017-07-27T13:07:42.954Z,3.67
2017-07-27T13:08:34.106Z,3.57
2017-07-27T13:10:10.531Z,2.60
2017-07-27T13:11:01.537Z,4.40
2017-07-27T13:12:38.138Z,3.13
2017-07-27T13:13:28.968Z,3.30
2017-07-27T13:15:05.712Z,3.17
2017-07-27T13:15:57.156Z,3.70
2017-07-27T13:17:33.302Z,3.57
2017-07-27T13:18:24.611Z,3.63
2017-07-27T13:20:00.924Z,3.30
2017-07-27T13:20:53.274Z,3.43
2017-07-27T13:22:28.497Z,3.43
2017-07-27T13:23:21.408Z,3.97
2017-07-27T13:24:56.068Z,3.87
2017-07-27T13:25:48.975Z,3.50
2017-07-27T13:27:24.456Z,3.40
2017-07-27T13:28:17.811Z,3.23
2017-07-27T13:29:52.035Z,3.20
2017-07-27T13:30:45.407Z,3.60
2017-07-27T13:32:19.612Z,3.40
2017-07-27T13:33:12.865Z,3.60
2017-07-27T13:34:47.234Z,3.80
2017-07-27T13:35:40.279Z,3.80
2017-07-27T13:37:14.816Z,3.70
2017-07-27T13:38:07.815Z,3.70
2017-07-27T13:39:43.159Z,3.23
2017-07-27T13:40:35.244Z,3.20
2017-07-27T13:42:10.792Z,3.90
2017-07-27T13:43:02.671Z,3.80
2017-07-27T13:44:38.378Z,3.80
2017-07-27T13:45:30.876Z,3.73
2017-07-27T13:47:05.966Z,6.60
2017-07-27T13:47:58.304Z,3.30
2017-07-27T13:49:33.599Z,4.67
2017-07-27T13:50:25.737Z,3.50
2017-07-27T13:52:01.216Z,4.40
2017-07-27T13:52:53.168Z,3.47
2017-07-27T13:54:28.800Z,4.10
2017-07-27T13:55:20.618Z,3.90
2017-07-27T13:56:56.426Z,3.37
2017-07-27T13:57:48.031Z,3.80
2017-07-27T13:59:24.004Z,3.47
2017-07-27T14:00:15.477Z,3.57
2017-07-27T14:01:51.570Z,3.27
2017-07-27T14:02:43.872Z,3.33
2017-07-27T14:04:19.956Z,4.77
2017-07-27T14:05:12.084Z,3.63
2017-07-27T14:06:47.537Z,3.97
2017-07-27T14:07:41.365Z,3.20
2017-07-27T14:09:15.145Z,3.87
2017-07-27T14:10:08.782Z,3.80
2017-07-27T14:11:42.785Z,5.57
2017-07-27T14:12:36.216Z,3.70
2017-07-27T14:14:10.376Z,3.20
2017-07-27T14:15:03.676Z,4.30
2017-07-27T14:16:38.741Z,2.73
2017-07-27T14:17:31.110Z,4.17
2017-07-27T14:19:07.156Z,3.37
2017-07-27T14:19:58.538Z,4.20
2017-07-27T14:21:34.725Z,3.43
2017-07-27T14:22:25.970Z,3.20
2017-07-27T14:24:02.304Z,3.10
2017-07-27T14:24:53.832Z,3.50
2017-07-27T14:26:30.686Z,3.93
2017-07-27T14:27:21.469Z,4.20
2017-07-27T14:28:58.279Z,3.50
2017-07-27T14:29:48.913Z,4.70
2017-07-27T14:31:25.866Z,3.00
2017-07-27T14:32:16.342Z,3.90
2017-07-27T14:33:53.518Z,3.50
2017-07-27T14:34:43.774Z,3.17
2017-07-27T14:36:21.095Z,3.40
2017-07-27T14:37:11.228Z,3.63
2017-07-27T14:38:48.672Z,3.07
2017-07-27T14:39:38.665Z,4.10
2017-07-27T14:41:16.296Z,3.40
2017-07-27T14:42:06.120Z,4.40
2017-07-27T14:43:43.863Z,3.17
2017-07-27T14:44:33.576Z,3.40
2017-07-27T14:46:12.191Z,3.33
2017-07-27T14:47:01.021Z,3.93
2017-07-27T14:48:39.822Z,3.33
2017-07-27T14:49:28.477Z,3.83
2017-07-27T14:51:07.405Z,3.50
2017-07-27T14:51:55.885Z,3.20
2017-07-27T14:53:34.978Z,3.80
2017-07-27T14:54:23.398Z,3.83
2017-07-27T14:56:02.603Z,2.90
2017-07-27T14:56:50.836Z,4.10
2017-07-27T14:58:30.948Z,2.93
2017-07-27T14:59:18.265Z,3.90
2017-07-27T15:00:58.537Z,3.87
2017-07-27T15:01:45.710Z,3.40
2017-07-27T15:03:26.169Z,3.87
2017-07-27T15:04:13.185Z,3.57
2017-07-27T15:05:53.743Z,3.17
2017-07-27T15:06:41.821Z,4.00
2017-07-27T15:08:21.316Z,2.87
2017-07-27T15:09:09.239Z,3.50
2017-07-27T15:10:49.713Z,3.17
2017-07-27T15:11:36.695Z,3.47
2017-07-27T15:13:17.292Z,3.20
2017-07-27T15:14:04.139Z,3.90
2017-07-27T15:15:44.876Z,3.67
2017-07-27T15:16:31.559Z,4.57
2017-07-27T15:18:13.279Z,3.70
2017-07-27T15:19:00.553Z,3.53
2017-07-27T15:20:40.859Z,2.37
2017-07-27T15:21:28.706Z,4.37
2017-07-27T15:23:08.436Z,4.93
2017-07-27T15:23:56.148Z,4.07
2017-07-27T15:25:36.060Z,3.90
2017-07-27T15:26:32.563Z,4.47
2017-07-27T15:28:05.330Z,3.80
2017-07-27T15:29:03.125Z,3.70
2017-07-27T15:30:33.067Z,3.17
2017-07-27T15:31:30.589Z,3.53
2017-07-27T15:33:00.701Z,3.20
2017-07-27T15:33:58.016Z,3.17
2017-07-27T15:35:28.275Z,3.17
2017-07-27T15:36:27.154Z,3.40
2017-07-27T15:37:56.836Z,3.30
2017-07-27T15:38:54.724Z,4.10
2017-07-27T15:40:24.459Z,2.87
2017-07-27T15:41:22.156Z,3.70
2017-07-27T15:42:52.019Z,2.60
2017-07-27T15:43:52.342Z,3.50
2017-07-27T15:45:19.603Z,3.43
2017-07-27T15:46:19.792Z,3.70
2017-07-27T15:47:47.250Z,2.87
2017-07-27T15:48:48.606Z,3.43
2017-07-27T15:50:14.814Z,2.97
2017-07-27T15:51:16.033Z,3.20
2017-07-27T15:52:42.404Z,3.23
2017-07-27T15:53:43.460Z,3.10
2017-07-27T15:55:10.029Z,3.10
2017-07-27T15:56:10.918Z,3.60
2017-07-27T15:57:37.621Z,2.97
2017-07-27T15:58:41.261Z,3.40
2017-07-27T16:00:05.204Z,2.70
2017-07-27T16:01:13.904Z,2.80
2017-07-27T16:02:32.837Z,2.03
2017-07-27T16:03:41.581Z,3.03
2017-07-27T16:05:00.422Z,2.70
2017-07-27T16:06:08.996Z,3.27
2017-07-27T16:07:28.012Z,2.40
2017-07-27T16:08:36.437Z,3.30
2017-07-27T16:09:55.650Z,2.80
2017-07-27T16:11:07.384Z,2.80
2017-07-27T16:12:23.251Z,2.93
2017-07-27T16:13:38.689Z,2.70
2017-07-27T16:14:50.826Z,2.17
2017-07-27T16:16:06.112Z,3.07
2017-07-27T16:17:18.445Z,2.30
2017-07-27T16:18:33.560Z,2.70
2017-07-27T16:19:46.028Z,2.77
2017-07-27T16:21:00.992Z,2.90
2017-07-27T16:22:13.607Z,2.37
2017-07-27T16:23:28.476Z,3.40
2017-07-27T16:24:41.226Z,2.67
2017-07-27T16:25:55.901Z,3.30
2017-07-27T16:27:08.803Z,2.30
2017-07-27T16:28:23.332Z,3.20
2017-07-27T16:29:37.134Z,2.73
2017-07-27T16:30:52.836Z,3.00
2017-07-27T16:32:04.751Z,3.27
2017-07-27T16:33:20.265Z,3.00
2017-07-27T16:34:32.329Z,2.67
2017-07-27T16:35:47.731Z,2.80
2017-07-27T16:36:59.902Z,3.30
2017-07-27T16:38:15.149Z,2.60
2017-07-27T16:39:28.282Z,3.30
2017-07-27T16:40:42.586Z,3.20
2017-07-27T16:41:55.866Z,3.10
2017-07-27T16:43:17.029Z,3.40
2017-07-27T16:44:23.467Z,3.03
2017-07-27T16:45:44.467Z,3.43
2017-07-27T16:46:51.092Z,2.87
2017-07-27T16:48:12.679Z,3.33
2017-07-27T16:49:19.421Z,2.63
2017-07-27T16:50:40.125Z,3.43
2017-07-27T16:51:47.028Z,2.60
2017-07-27T16:53:07.564Z,3.43
2017-07-27T16:54:14.648Z,3.03
2017-07-27T16:55:36.150Z,3.80
2017-07-27T16:56:42.978Z,2.50
2017-07-27T16:58:03.580Z,3.70
2017-07-27T16:59:10.560Z,3.10
2017-07-27T17:00:31.050Z,3.80
2017-07-27T17:01:38.933Z,2.60
2017-07-27T17:02:58.700Z,3.50
2017-07-27T17:04:06.526Z,3.00
2017-07-27T17:05:26.916Z,5.13
2017-07-27T17:06:34.108Z,2.57
2017-07-27T17:07:54.382Z,3.93
2017-07-27T17:09:02.496Z,3.17
2017-07-27T17:10:22.673Z,4.20
2017-07-27T17:11:30.089Z,3.10
2017-07-27T17:12:51.251Z,3.57
2017-07-27T17:13:57.673Z,2.87
2017-07-27T17:15:18.680Z,3.40
2017-07-27T17:16:25.304Z,3.37
2017-07-27T17:17:46.161Z,4.37
2017-07-27T17:18:53.714Z,2.70
2017-07-27T17:20:13.597Z,3.70
2017-07-27T17:21:21.319Z,4.70
2017-07-27T17:22:41.175Z,4.07
2017-07-27T17:23:49.722Z,3.60
2017-07-27T17:25:08.601Z,3.97
2017-07-27T17:26:17.290Z,3.97
2017-07-27T17:27:36.805Z,3.90
2017-07-27T17:28:44.873Z,4.47
2017-07-27T17:30:04.270Z,3.90
2017-07-27T17:31:12.507Z,3.80
2017-07-27T17:32:31.723Z,3.73
2017-07-27T17:33:40.858Z,4.93
2017-07-27T17:34:59.144Z,4.47
2017-07-27T17:36:09.191Z,3.60
2017-07-27T17:37:26.600Z,3.53
2017-07-27T17:38:36.819Z,5.33
2017-07-27T17:39:54.104Z,3.20
2017-07-27T17:41:04.409Z,10.10
2017-07-27T17:42:21.546Z,4.80
2017-07-27T17:43:31.975Z,4.20
2017-07-27T17:44:49.042Z,4.73
2017-07-27T17:45:59.612Z,3.70
2017-07-27T17:47:16.469Z,3.23
2017-07-27T17:48:27.943Z,3.00
2017-07-27T17:49:45.025Z,5.33
2017-07-27T17:50:55.526Z,3.03
2017-07-27T17:52:13.548Z,3.93
2017-07-27T17:53:23.150Z,3.80
2017-07-27T17:54:41.007Z,5.60
2017-07-27T17:55:51.510Z,4.90
2017-07-27T17:57:08.465Z,4.03
2017-07-27T17:58:19.175Z,3.60
2017-07-27T17:59:38.046Z,4.87
2017-07-27T18:00:46.811Z,6.37
2017-07-27T18:02:05.489Z,3.37
2017-07-27T18:03:15.162Z,5.10
2017-07-27T18:04:39.774Z,4.00
2017-07-27T18:05:42.768Z,3.87
2017-07-27T18:07:07.997Z,3.80
2017-07-27T18:08:10.397Z,3.13
2017-07-27T18:09:37.261Z,4.40
2017-07-27T18:10:38.734Z,2.60
2017-07-27T18:12:04.905Z,4.70
2017-07-27T18:13:06.322Z,3.10
2017-07-27T18:14:32.346Z,3.70
2017-07-27T18:15:34.708Z,2.97
2017-07-27T18:17:00.609Z,3.57
2017-07-27T18:18:02.283Z,3.67
2017-07-27T18:19:28.053Z,4.77
2017-07-27T18:20:29.864Z,3.43
2017-07-27T18:21:56.069Z,3.50
2017-07-27T18:22:58.269Z,3.20
2017-07-27T18:24:23.502Z,4.17
2017-07-27T18:25:25.875Z,4.00
2017-07-27T18:26:50.937Z,4.50
2017-07-27T18:27:54.249Z,3.30
2017-07-27T18:29:18.981Z,4.33
2017-07-27T18:30:21.885Z,3.60
2017-07-27T18:31:46.457Z,4.47
2017-07-27T18:32:50.233Z,3.33
2017-07-27T18:34:14.665Z,3.90
2017-07-27T18:35:18.571Z,3.67
2017-07-27T18:36:42.110Z,3.70
2017-07-27T18:37:46.192Z,3.03
2017-07-27T18:39:09.544Z,4.20
2017-07-27T18:40:13.772Z,4.17
2017-07-27T18:41:39.514Z,3.40
2017-07-27T18:42:41.352Z,4.13
2017-07-27T18:44:07.887Z,3.33
2017-07-27T18:45:09.021Z,4.30
2017-07-27T18:46:35.338Z,4.57
2017-07-27T18:47:36.614Z,3.40
2017-07-27T18:49:02.781Z,3.83
2017-07-27T18:50:04.182Z,3.63
2017-07-27T18:51:31.069Z,4.87
2017-07-27T18:52:31.820Z,8.63
2017-07-27T18:54:04.344Z,3.80
2017-07-27T18:55:00.189Z,5.00
2017-07-27T18:56:31.805Z,4.30
2017-07-27T18:57:27.766Z,4.40
2017-07-27T18:58:59.268Z,4.10
2017-07-27T18:59:56.270Z,4.13
2017-07-27T19:01:26.913Z,4.10
2017-07-27T19:02:23.846Z,3.73
2017-07-27T19:03:54.388Z,4.50
2017-07-27T19:04:51.441Z,3.93
2017-07-27T19:06:24.715Z,4.47
2017-07-27T19:07:19.850Z,4.33
2017-07-27T19:08:52.172Z,4.40
2017-07-27T19:09:47.433Z,3.70
2017-07-27T19:11:20.328Z,4.20
2017-07-27T19:12:15.026Z,7.50
2017-07-27T19:13:48.513Z,4.97
2017-07-27T19:14:42.675Z,5.53
2017-07-27T19:16:15.983Z,4.77
2017-07-27T19:17:10.266Z,4.90
2017-07-27T19:18:43.419Z,3.97
2017-07-27T19:19:37.868Z,4.60
2017-07-27T19:21:10.881Z,4.30
2017-07-27T19:22:05.514Z,5.10
2017-07-27T19:23:38.331Z,3.90
2017-07-27T19:24:33.203Z,4.30
2017-07-27T19:26:07.596Z,5.17
2017-07-27T19:27:00.802Z,4.07
2017-07-27T19:28:35.201Z,4.50
2017-07-27T19:29:28.420Z,4.77
2017-07-27T19:31:02.657Z,4.90
2017-07-27T19:31:56.778Z,3.90
2017-07-27T19:33:30.124Z,5.83
2017-07-27T19:34:25.129Z,3.47
2017-07-27T19:35:58.321Z,5.00
2017-07-27T19:36:53.532Z,4.20
2017-07-27T19:38:25.755Z,4.07
2017-07-27T19:39:21.102Z,3.73
2017-07-27T19:40:53.205Z,4.03
2017-07-27T19:41:48.688Z,4.00
2017-07-27T19:43:20.656Z,5.00
2017-07-27T19:44:17.082Z,4.33
2017-07-27T19:45:48.097Z,4.50
2017-07-27T19:46:44.656Z,4.00
2017-07-27T19:48:15.544Z,4.53
2017-07-27T19:49:12.240Z,4.10
2017-07-27T19:50:42.969Z,4.30
2017-07-27T19:51:40.632Z,4.50
2017-07-27T19:53:10.410Z,4.90
2017-07-27T19:54:08.213Z,4.43
2017-07-27T19:55:37.888Z,4.30
2017-07-27T19:56:35.795Z,4.40
2017-07-27T19:58:05.327Z,5.40
2017-07-27T19:59:04.240Z,4.23
2017-07-27T20:00:34.219Z,5.37
2017-07-27T20:01:31.819Z,4.10
2017-07-27T20:03:01.728Z,4.73
2017-07-27T20:03:59.464Z,5.07
2017-07-27T20:05:29.165Z,4.63
2017-07-27T20:06:27.091Z,4.77
2017-07-27T20:07:56.592Z,5.67
2017-07-27T20:08:55.430Z,5.43
2017-07-27T20:10:24.819Z,5.17
2017-07-27T20:11:23.070Z,4.97
2017-07-27T20:12:52.266Z,5.73
2017-07-27T20:13:50.677Z,4.60
2017-07-27T20:15:19.697Z,5.07
2017-07-27T20:16:18.260Z,4.77
2017-07-27T20:17:47.130Z,4.60
2017-07-27T20:18:45.850Z,4.67
2017-07-27T20:20:14.640Z,5.43
2017-07-27T20:21:13.484Z,3.87
2017-07-27T20:22:42.056Z,5.30
2017-07-27T20:23:41.832Z,4.10
2017-07-27T20:25:10.282Z,5.50
2017-07-27T20:26:10.171Z,3.87
2017-07-27T20:27:37.721Z,6.13
2017-07-27T20:28:37.826Z,4.00
2017-07-27T20:30:05.160Z,5.60
2017-07-27T20:31:05.403Z,5.23